Time;durP1;ratioP1;P1;durP2;ratioP2;P2;SDS_P1;SDS_P2;PMS_P1;PMS_P2;Temp;Humidity;BMP_temperature;BMP_pressure;BME280_temperature;BME280_humidity;BME280_pressure;Samples;Min_cycle;Max_cycle;Signal;HPM_P1;HPM_P2
2021/12/18 07:02:42;;;;;;;67.97;31.45;;;5.20;99.90;;;;;;4894511;29;20454;-94
2021/12/18 07:05:10;;;;;;;71.35;31.27;;;5.20;99.90;;;;;;4898677;29;20458;-94
2021/12/18 07:07:37;;;;;;;68.47;30.67;;;5.20;99.90;;;;;;4883540;29;20048;-92
2021/12/18 07:10:07;;;;;;;67.97;29.70;;;5.20;99.90;;;;;;4883443;29;20052;-96
2021/12/18 07:12:34;;;;;;;64.50;31.42;;;5.20;99.90;;;;;;4899870;29;20421;-96
2021/12/18 07:15:04;;;;;;;60.75;29.08;;;5.20;99.90;;;;;;4900743;29;20055;-94
2021/12/18 07:17:32;;;;;;;69.90;31.50;;;5.20;99.90;;;;;;4883559;29;20052;-93
2021/12/18 07:19:59;;;;;;;64.10;31.20;;;5.10;99.90;;;;;;4880913;29;20049;-94
2021/12/18 07:22:26;;;;;;;63.15;29.38;;;5.10;99.90;;;;;;4885812;29;20064;-95
2021/12/18 07:24:53;;;;;;;66.28;30.13;;;5.10;99.90;;;;;;4905304;29;20418;-93
2021/12/18 07:27:20;;;;;;;67.45;31.15;;;5.10;99.90;;;;;;4902194;29;20057;-94
2021/12/18 07:29:46;;;;;;;64.93;31.13;;;5.10;99.90;;;;;;4908968;29;20041;-95
2021/12/18 07:32:14;;;;;;;70.90;30.13;;;5.10;99.90;;;;;;4872029;29;20077;-94
2021/12/18 07:34:52;;;;;;;60.95;29.30;;;5.10;99.90;;;;;;4899278;29;20053;-93
2021/12/18 07:37:19;;;;;;;67.13;31.52;;;5.10;99.90;;;;;;4880607;29;20048;-94
2021/12/18 07:39:46;;;;;;;77.88;31.00;;;5.00;99.90;;;;;;4889287;29;20067;-93
2021/12/18 07:42:13;;;;;;;68.95;30.40;;;5.00;99.90;;;;;;4895577;29;20067;-93
2021/12/18 07:44:42;;;;;;;66.90;31.35;;;5.00;99.90;;;;;;4881777;29;20036;-94
2021/12/18 07:47:09;;;;;;;67.80;29.92;;;5.00;99.90;;;;;;4893652;29;20125;-94
2021/12/18 07:49:38;;;;;;;67.55;31.08;;;5.00;99.90;;;;;;4899239;29;20052;-95
2021/12/18 07:52:07;;;;;;;68.53;30.92;;;5.00;99.90;;;;;;4880094;29;20048;-93
2021/12/18 07:54:34;;;;;;;59.38;29.55;;;4.90;99.90;;;;;;4881605;29;20051;-92
2021/12/18 07:57:01;;;;;;;61.78;29.40;;;4.90;99.90;;;;;;4896294;29;20187;-94
2021/12/18 07:59:28;;;;;;;67.82;30.02;;;4.90;99.90;;;;;;4884354;29;20116;-95
2021/12/18 08:01:55;;;;;;;62.97;29.55;;;4.90;99.90;;;;;;4895731;29;20509;-95
2021/12/18 08:04:22;;;;;;;64.78;31.38;;;4.90;99.90;;;;;;4896259;29;20501;-94
2021/12/18 08:06:49;;;;;;;63.22;28.77;;;4.90;99.90;;;;;;4894080;29;20120;-90
2021/12/18 08:09:16;;;;;;;65.82;31.27;;;4.90;99.90;;;;;;4895271;29;20048;-95
2021/12/18 08:11:44;;;;;;;62.90;30.05;;;4.90;99.90;;;;;;4899221;29;20513;-95
2021/12/18 08:14:11;;;;;;;67.40;30.05;;;4.90;99.90;;;;;;4897047;29;20591;-96
2021/12/18 08:16:38;;;;;;;61.38;29.70;;;4.90;99.90;;;;;;4909288;29;20794;-94
2021/12/18 08:19:06;;;;;;;61.20;29.77;;;4.90;99.90;;;;;;4904043;29;20076;-95
2021/12/18 08:21:35;;;;;;;61.17;29.33;;;4.90;99.90;;;;;;4898518;29;20844;-95
2021/12/18 08:24:02;;;;;;;60.67;29.45;;;4.90;99.90;;;;;;4898574;29;20048;-93
2021/12/18 08:26:34;;;;;;;62.58;29.65;;;4.90;99.90;;;;;;4897865;29;20052;-94
2021/12/18 08:29:14;;;;;;;58.53;28.42;;;4.90;99.90;;;;;;4894505;29;20057;-93
2021/12/18 08:31:41;;;;;;;66.80;30.38;;;4.90;99.90;;;;;;4894559;29;20053;-93
2021/12/18 08:34:11;;;;;;;60.85;28.50;;;4.90;99.90;;;;;;4899777;29;20050;-94
2021/12/18 08:36:41;;;;;;;59.65;28.40;;;4.90;99.90;;;;;;4904028;29;20048;-95
2021/12/18 08:39:11;;;;;;;59.65;29.58;;;5.00;99.90;;;;;;4899136;29;20051;-93
2021/12/18 08:41:42;;;;;;;59.63;27.65;;;5.00;99.90;;;;;;4904760;29;20469;-92
2021/12/18 08:44:10;;;;;;;63.13;29.95;;;5.00;99.90;;;;;;4885232;29;20163;-92
2021/12/18 08:46:37;;;;;;;56.90;29.20;;;5.00;99.90;;;;;;4904338;29;20063;-94
2021/12/18 08:49:05;;;;;;;61.40;29.45;;;5.10;99.90;;;;;;4893941;29;20056;-90
2021/12/18 08:51:35;;;;;;;63.92;30.88;;;5.10;99.90;;;;;;4897229;29;20048;-93
2021/12/18 08:54:03;;;;;;;62.75;30.25;;;5.10;99.90;;;;;;4897320;29;20048;-86
2021/12/18 08:56:30;;;;;;;59.90;28.33;;;5.20;99.90;;;;;;4896119;29;20081;-89
2021/12/18 08:59:00;;;;;;;58.28;29.80;;;5.20;99.90;;;;;;4896544;29;20056;-89
2021/12/18 09:01:30;;;;;;;54.95;28.55;;;5.30;99.90;;;;;;4892054;29;20041;-89
2021/12/18 09:03:57;;;;;;;59.15;28.75;;;5.30;99.90;;;;;;4901964;29;20056;-88
2021/12/18 09:06:26;;;;;;;59.53;29.13;;;5.30;99.90;;;;;;4914539;29;20072;-91
2021/12/18 09:08:53;;;;;;;59.50;28.40;;;5.40;99.90;;;;;;4898738;29;20056;-86
2021/12/18 09:11:20;;;;;;;51.10;26.50;;;5.50;99.90;;;;;;4898417;29;20052;-90
2021/12/18 09:13:47;;;;;;;56.85;29.42;;;5.50;99.90;;;;;;4892426;29;20084;-90
2021/12/18 09:16:17;;;;;;;53.65;28.42;;;5.60;99.90;;;;;;4913650;29;20044;-90
2021/12/18 09:18:44;;;;;;;54.55;28.92;;;5.60;99.90;;;;;;4897652;29;20055;-87
2021/12/18 09:21:12;;;;;;;55.30;27.58;;;5.70;99.90;;;;;;4892554;29;20044;-84
2021/12/18 09:23:38;;;;;;;57.30;29.05;;;5.70;99.90;;;;;;4900303;29;20051;-89
2021/12/18 09:26:06;;;;;;;59.50;30.80;;;5.80;99.90;;;;;;4900480;29;20052;-90
2021/12/18 09:28:33;;;;;;;51.15;28.02;;;5.80;99.90;;;;;;4900268;29;20107;-86
2021/12/18 09:31:00;;;;;;;51.92;26.08;;;5.90;99.90;;;;;;4900994;29;20044;-85
2021/12/18 09:33:27;;;;;;;50.42;27.00;;;6.00;99.90;;;;;;4915133;29;20104;-84
2021/12/18 09:35:54;;;;;;;46.83;26.38;;;6.00;99.90;;;;;;4913570;29;20120;-85
2021/12/18 09:38:21;;;;;;;50.65;27.40;;;6.10;99.90;;;;;;4896345;29;20051;-86
2021/12/18 09:40:48;;;;;;;50.35;26.52;;;6.20;99.90;;;;;;4910099;29;20052;-87
2021/12/18 09:43:15;;;;;;;45.40;25.23;;;6.20;99.90;;;;;;4910178;29;20067;-87
2021/12/18 09:45:46;;;;;;;45.72;26.10;;;6.30;99.90;;;;;;4896432;29;20055;-89
2021/12/18 09:48:13;;;;;;;50.72;26.90;;;6.40;99.90;;;;;;4895055;29;20052;-87
2021/12/18 09:50:43;;;;;;;43.80;24.45;;;6.40;99.90;;;;;;4899357;29;20079;-88
2021/12/18 09:53:13;;;;;;;44.08;25.15;;;6.50;99.90;;;;;;4910545;29;20052;-86
2021/12/18 09:55:40;;;;;;;44.20;24.02;;;6.60;99.90;;;;;;4908623;29;20055;-86
2021/12/18 09:58:07;;;;;;;47.95;25.02;;;6.60;99.90;;;;;;4894684;29;20532;-87
2021/12/18 10:00:34;;;;;;;42.28;23.63;;;6.70;99.90;;;;;;4910374;29;20067;-85
2021/12/18 10:03:01;;;;;;;44.63;24.60;;;6.70;99.90;;;;;;4875564;29;20044;-87
2021/12/18 10:05:32;;;;;;;44.05;25.30;;;6.80;99.90;;;;;;4913207;29;20052;-89
2021/12/18 10:08:14;;;;;;;42.50;24.35;;;6.90;99.90;;;;;;4908262;29;20075;-88
2021/12/18 10:11:00;;;;;;;46.38;25.35;;;6.90;99.90;;;;;;4897120;29;20055;-90
2021/12/18 10:13:28;;;;;;;44.53;24.48;;;7.00;99.90;;;;;;4902358;29;20044;-89
2021/12/18 10:16:11;;;;;;;40.95;23.60;;;7.00;99.90;;;;;;4914620;29;20071;-89
2021/12/18 10:18:39;;;;;;;41.05;23.10;;;7.10;99.90;;;;;;4915600;29;20051;-86
2021/12/18 10:21:12;;;;;;;36.53;22.23;;;7.20;99.90;;;;;;4913843;29;20115;-88
2021/12/18 10:23:43;;;;;;;36.40;22.63;;;7.20;99.90;;;;;;4903104;29;20051;-89
2021/12/18 10:26:36;;;;;;;40.63;23.38;;;7.30;99.90;;;;;;4912892;29;20052;-90
2021/12/18 10:29:06;;;;;;;40.20;23.13;;;7.40;99.90;;;;;;4897194;29;20055;-88
2021/12/18 10:31:45;;;;;;;37.45;23.40;;;7.40;99.90;;;;;;4899062;29;20040;-88
2021/12/18 10:34:23;;;;;;;35.67;22.08;;;7.50;99.90;;;;;;4895961;29;20398;-88
2021/12/18 10:37:12;;;;;;;35.38;21.80;;;7.50;99.90;;;;;;4910262;29;20048;-87
2021/12/18 10:39:49;;;;;;;32.42;20.13;;;7.60;99.90;;;;;;4891096;29;20059;-88
2021/12/18 10:42:29;;;;;;;37.03;22.17;;;7.60;99.90;;;;;;4909848;29;20096;-88
2021/12/18 10:44:59;;;;;;;35.28;21.35;;;7.70;99.90;;;;;;4910109;29;20047;-86
2021/12/18 10:47:44;;;;;;;33.53;20.88;;;7.70;99.90;;;;;;4909180;29;20360;-88
2021/12/18 10:50:38;;;;;;;30.45;20.27;;;7.80;99.90;;;;;;4910833;29;20059;-88
2021/12/18 10:53:27;;;;;;;34.83;21.83;;;7.80;99.90;;;;;;4869903;29;20053;-87
2021/12/18 10:56:02;;;;;;;32.67;20.08;;;7.90;99.90;;;;;;4855737;29;20100;-88
2021/12/18 10:58:32;;;;;;;31.58;20.77;;;8.00;99.90;;;;;;4870215;29;20057;-88
2021/12/18 11:01:01;;;;;;;31.83;19.77;;;8.00;99.90;;;;;;4841739;29;20076;-90
2021/12/18 11:03:31;;;;;;;30.27;18.73;;;8.00;99.90;;;;;;4831648;29;20057;-90
2021/12/18 11:06:20;;;;;;;29.48;18.35;;;8.00;99.90;;;;;;4818442;29;20538;-85
2021/12/18 11:09:06;;;;;;;28.70;18.90;;;8.10;99.90;;;;;;4834517;29;20074;-90
2021/12/18 11:14:22;;;;;;;;;;;8.20;99.90;;;;;;4838431;29;20085;-86
2021/12/18 11:16:55;;;;;;;29.92;18.10;;;8.20;99.90;;;;;;4837151;29;19924;-88
2021/12/18 11:19:25;;;;;;;30.38;17.65;;;8.30;99.90;;;;;;4836233;29;20422;-86
2021/12/18 11:21:59;;;;;;;26.95;17.25;;;8.30;99.90;;;;;;4837340;29;20087;-86
2021/12/18 11:24:41;;;;;;;28.13;18.40;;;8.40;99.90;;;;;;4822006;29;20096;-88
2021/12/18 11:27:09;;;;;;;23.90;17.30;;;8.40;99.90;;;;;;4836112;29;20062;-87
2021/12/18 11:29:46;;;;;;;26.00;17.10;;;8.40;99.90;;;;;;4841197;29;20047;-88
2021/12/18 11:32:31;;;;;;;27.63;18.02;;;8.50;99.90;;;;;;4869050;29;20056;-87
2021/12/18 11:35:03;;;;;;;24.58;16.17;;;8.50;99.90;;;;;;4877805;29;20051;-87
2021/12/18 11:37:55;;;;;;;25.55;16.67;;;8.50;99.90;;;;;;4870312;29;20072;-85
2021/12/18 11:40:26;;;;;;;23.80;16.65;;;8.60;99.90;;;;;;4884606;29;20052;-87
2021/12/18 11:42:53;;;;;;;26.33;18.35;;;8.60;99.90;;;;;;4865130;29;20052;-86
2021/12/18 11:45:30;;;;;;;24.77;16.25;;;8.70;99.90;;;;;;4887212;29;20053;-86
2021/12/18 11:47:59;;;;;;;23.00;16.45;;;8.70;99.90;;;;;;4878722;29;20053;-88
2021/12/18 11:50:26;;;;;;;29.70;18.13;;;8.80;99.90;;;;;;4884890;29;20053;-87
2021/12/18 11:53:10;;;;;;;27.40;16.98;;;8.80;99.90;;;;;;4893037;29;20066;-87
2021/12/18 11:55:37;;;;;;;27.67;17.90;;;8.90;99.90;;;;;;4861393;29;20049;-86
2021/12/18 11:58:13;;;;;;;23.35;16.05;;;8.90;99.90;;;;;;4880075;29;20337;-87
2021/12/18 12:00:56;;;;;;;27.15;16.58;;;9.00;99.90;;;;;;4870563;29;20055;-86
2021/12/18 12:03:40;;;;;;;26.70;16.50;;;9.00;99.90;;;;;;4902252;29;20077;-85
2021/12/18 12:06:21;;;;;;;23.42;15.68;;;9.10;99.90;;;;;;4910152;29;20157;-85
2021/12/18 12:08:51;;;;;;;23.73;15.65;;;9.10;99.90;;;;;;4913011;29;20056;-85
2021/12/18 12:11:23;;;;;;;25.50;16.15;;;9.20;99.90;;;;;;4910518;29;20052;-85
2021/12/18 12:14:00;;;;;;;19.80;15.05;;;9.20;99.90;;;;;;4909604;29;20076;-84
2021/12/18 12:16:54;;;;;;;21.23;14.88;;;9.20;99.90;;;;;;4897776;29;20108;-85
2021/12/18 12:19:45;;;;;;;24.80;16.05;;;9.30;99.90;;;;;;4868343;29;20049;-87
2021/12/18 12:22:48;;;;;;;22.75;16.00;;;9.30;99.90;;;;;;4868271;29;20041;-85
2021/12/18 12:25:18;;;;;;;22.27;15.60;;;9.40;99.90;;;;;;4871892;29;20052;-86
2021/12/18 12:28:01;;;;;;;22.05;15.10;;;9.40;99.90;;;;;;4871889;29;20052;-84
2021/12/18 12:30:44;;;;;;;22.10;15.18;;;9.40;99.90;;;;;;4874118;29;20049;-84
2021/12/18 12:33:26;;;;;;;21.80;14.68;;;9.50;99.90;;;;;;4873628;29;20053;-86
2021/12/18 12:36:00;;;;;;;20.75;14.65;;;9.50;99.90;;;;;;4874021;29;20057;-85
2021/12/18 12:38:55;;;;;;;20.85;14.20;;;9.50;99.90;;;;;;4871835;29;20053;-85
2021/12/18 12:41:36;;;;;;;19.00;13.70;;;9.50;99.90;;;;;;4869485;29;20052;-84
2021/12/18 12:44:17;;;;;;;19.20;13.07;;;9.60;99.90;;;;;;4875019;29;20057;-85
2021/12/18 12:46:45;;;;;;;19.65;13.98;;;9.60;99.90;;;;;;4873213;29;20061;-83
2021/12/18 12:49:19;;;;;;;18.80;13.05;;;9.60;99.90;;;;;;4869828;29;20199;-85
2021/12/18 12:52:07;;;;;;;17.52;13.02;;;9.60;99.90;;;;;;4864224;29;20067;-84
2021/12/18 12:54:51;;;;;;;18.55;13.60;;;9.70;99.90;;;;;;4853212;29;20189;-84
2021/12/18 12:57:25;;;;;;;18.58;12.57;;;9.70;99.90;;;;;;4889999;29;20045;-85
2021/12/18 12:59:59;;;;;;;19.15;12.93;;;9.70;99.90;;;;;;4913408;29;20147;-82
2021/12/18 13:02:31;;;;;;;19.08;13.82;;;9.80;99.90;;;;;;4912036;29;20044;-85
2021/12/18 13:05:01;;;;;;;20.23;13.27;;;9.80;99.90;;;;;;4907728;29;20675;-83
2021/12/18 13:07:28;;;;;;;17.73;13.02;;;9.80;99.90;;;;;;4895047;29;20297;-86
2021/12/18 13:09:55;;;;;;;17.15;12.52;;;9.90;99.90;;;;;;4902087;29;20480;-86
2021/12/18 13:12:22;;;;;;;18.27;12.95;;;9.90;99.90;;;;;;4910821;29;20527;-86
2021/12/18 13:14:50;;;;;;;18.55;13.15;;;9.90;99.90;;;;;;4896123;29;20111;-86
2021/12/18 13:17:22;;;;;;;17.17;12.52;;;10.00;99.90;;;;;;4909009;29;20517;-84
2021/12/18 13:19:57;;;;;;;17.35;12.18;;;10.00;99.90;;;;;;4914764;29;20052;-83
2021/12/18 13:22:30;;;;;;;15.88;12.30;;;10.00;99.90;;;;;;4892013;29;20059;-83
2021/12/18 13:25:09;;;;;;;16.63;12.02;;;10.00;99.90;;;;;;4908534;29;20052;-84
2021/12/18 13:27:40;;;;;;;16.20;12.40;;;10.10;99.90;;;;;;4891263;29;20048;-85
2021/12/18 13:30:11;;;;;;;15.02;11.45;;;10.10;99.90;;;;;;4894184;29;20052;-86
2021/12/18 13:32:53;;;;;;;18.80;11.23;;;10.10;99.90;;;;;;4905993;29;20048;-84
2021/12/18 13:35:22;;;;;;;13.48;10.75;;;10.10;99.90;;;;;;4909878;29;20052;-86
2021/12/18 13:38:03;;;;;;;19.20;11.65;;;10.10;99.90;;;;;;4910607;29;20059;-84
2021/12/18 13:40:33;;;;;;;17.45;11.95;;;10.20;99.90;;;;;;4909204;29;20050;-88
2021/12/18 13:43:05;;;;;;;16.48;10.90;;;10.20;99.90;;;;;;4900155;29;20495;-87
2021/12/18 13:45:34;;;;;;;17.92;13.48;;;10.20;99.90;;;;;;4898712;29;20072;-89
2021/12/18 13:48:03;;;;;;;17.25;11.77;;;10.20;99.90;;;;;;4900541;29;20051;-88
2021/12/18 13:50:31;;;;;;;22.38;10.90;;;10.20;99.90;;;;;;4909309;29;20104;-86
2021/12/18 13:53:03;;;;;;;18.55;11.90;;;10.30;99.90;;;;;;4927697;29;20048;-83
2021/12/18 13:55:43;;;;;;;19.63;11.90;;;10.30;99.90;;;;;;4913565;29;20075;-84
2021/12/18 13:58:15;;;;;;;19.50;11.55;;;10.30;99.90;;;;;;4914312;29;20052;-88
2021/12/18 14:01:08;;;;;;;20.58;12.25;;;10.40;99.90;;;;;;4897825;29;20055;-88
2021/12/18 14:03:50;;;;;;;20.08;11.68;;;10.40;99.90;;;;;;4879905;29;20049;-85
2021/12/18 14:06:27;;;;;;;19.63;12.32;;;10.40;99.90;;;;;;4883962;29;20108;-86
2021/12/18 14:09:16;;;;;;;16.30;11.35;;;10.40;99.90;;;;;;4897019;29;20502;-84
2021/12/18 14:11:54;;;;;;;16.65;12.02;;;10.50;99.90;;;;;;4876355;29;20056;-91
2021/12/18 14:14:42;;;;;;;18.63;12.40;;;10.50;99.90;;;;;;4898288;29;20078;-90
2021/12/18 14:17:16;;;;;;;18.10;12.32;;;10.50;99.90;;;;;;4897343;29;20079;-85
2021/12/18 14:19:47;;;;;;;29.67;11.93;;;10.50;99.90;;;;;;4895278;29;20059;-87
2021/12/18 14:22:36;;;;;;;18.73;11.45;;;10.50;99.90;;;;;;4894945;29;20044;-87
2021/12/18 14:25:12;;;;;;;23.95;11.52;;;10.50;99.90;;;;;;4863326;29;20053;-88
2021/12/18 14:27:45;;;;;;;15.20;10.93;;;10.50;99.90;;;;;;4865697;29;20076;-86
2021/12/18 14:30:21;;;;;;;17.67;11.68;;;10.50;99.90;;;;;;4880300;29;20113;-86
2021/12/18 14:32:53;;;;;;;15.98;11.15;;;10.50;99.90;;;;;;4861807;29;20085;-84
2021/12/18 14:35:21;;;;;;;15.50;11.30;;;10.50;99.90;;;;;;4896365;29;20060;-86
2021/12/18 14:37:51;;;;;;;15.63;11.00;;;10.50;99.90;;;;;;4893810;29;20056;-85
2021/12/18 14:40:22;;;;;;;14.65;11.52;;;10.50;99.90;;;;;;4878609;29;20040;-85
2021/12/18 14:43:15;;;;;;;15.05;12.00;;;10.50;99.90;;;;;;4893764;29;20044;-85
2021/12/18 14:45:42;;;;;;;14.77;11.18;;;10.50;99.90;;;;;;4894150;29;20048;-82
2021/12/18 14:48:10;;;;;;;15.90;11.65;;;10.50;99.90;;;;;;4893454;29;20105;-84
2021/12/18 14:50:45;;;;;;;14.70;10.73;;;10.50;99.90;;;;;;4896646;29;20068;-83
2021/12/18 14:53:15;;;;;;;19.40;10.52;;;10.50;99.90;;;;;;4892446;29;20052;-84
2021/12/18 14:55:44;;;;;;;20.50;10.15;;;10.50;99.90;;;;;;4894588;29;20059;-87
2021/12/18 14:58:17;;;;;;;22.92;10.50;;;10.50;99.90;;;;;;4878250;29;20059;-89
2021/12/18 15:00:57;;;;;;;16.88;10.93;;;10.50;99.90;;;;;;4896739;29;20056;-86
2021/12/18 15:03:48;;;;;;;19.63;10.05;;;10.50;99.90;;;;;;4897705;29;20082;-88
2021/12/18 15:06:19;;;;;;;14.40;10.32;;;10.50;99.90;;;;;;4893495;29;20577;-82
2021/12/18 15:09:10;;;;;;;16.98;9.98;;;10.50;99.90;;;;;;4913738;29;20044;-83
2021/12/18 15:11:47;;;;;;;18.83;11.20;;;10.50;99.90;;;;;;4912870;29;20044;-85
2021/12/18 15:14:20;;;;;;;12.45;9.65;;;10.50;99.90;;;;;;4911817;29;20516;-86
2021/12/18 15:16:58;;;;;;;16.17;9.60;;;10.50;99.90;;;;;;4912454;29;20139;-82
2021/12/18 15:19:31;;;;;;;12.38;9.65;;;10.50;99.90;;;;;;4909878;29;20044;-80
2021/12/18 15:22:11;;;;;;;19.02;9.88;;;10.50;99.90;;;;;;4911601;29;20198;-81
2021/12/18 15:24:41;;;;;;;14.82;10.20;;;10.50;99.90;;;;;;4910196;29;20557;-80
2021/12/18 15:27:09;;;;;;;16.88;10.45;;;10.50;99.90;;;;;;4911415;29;20059;-80
2021/12/18 15:29:42;;;;;;;44.70;11.27;;;10.50;99.90;;;;;;4912091;29;20071;-82
2021/12/18 15:32:10;;;;;;;41.10;11.45;;;10.50;99.90;;;;;;4896593;29;20047;-81
2021/12/18 15:34:38;;;;;;;;;;;10.50;99.90;;;;;;4910892;29;20100;-83
2021/12/18 15:37:11;;;;;;;14.18;9.75;;;10.40;99.90;;;;;;4896788;29;20301;-82
2021/12/18 15:39:41;;;;;;;11.88;9.50;;;10.40;99.90;;;;;;4913974;29;20044;-83
2021/12/18 15:42:10;;;;;;;12.98;9.93;;;10.40;99.90;;;;;;4912200;29;20056;-83
2021/12/18 15:44:38;;;;;;;15.30;10.25;;;10.30;99.90;;;;;;4909256;29;20402;-83
2021/12/18 15:47:06;;;;;;;12.63;9.45;;;10.20;99.90;;;;;;4911864;29;20084;-82
2021/12/18 15:49:33;;;;;;;13.80;9.48;;;10.20;99.90;;;;;;4912827;29;20099;-84
2021/12/18 15:52:01;;;;;;;13.48;8.95;;;10.20;99.90;;;;;;4913015;29;20059;-83
2021/12/18 15:54:28;;;;;;;12.90;8.90;;;10.10;99.90;;;;;;4896079;29;20071;-83
2021/12/18 15:56:55;;;;;;;13.98;8.88;;;10.00;99.90;;;;;;4886874;29;20059;-83
2021/12/18 15:59:22;;;;;;;12.05;8.75;;;10.00;99.90;;;;;;4890217;29;20048;-83
2021/12/18 16:01:49;;;;;;;11.57;8.35;;;10.00;99.90;;;;;;4900547;29;20052;-84
2021/12/18 16:04:16;;;;;;;9.65;7.63;;;9.90;99.90;;;;;;4896717;29;20050;-84
2021/12/18 16:06:46;;;;;;;12.18;8.48;;;9.90;99.90;;;;;;4893943;29;20544;-83
2021/12/18 16:09:21;;;;;;;11.95;8.30;;;9.80;99.90;;;;;;4891563;29;20044;-84
2021/12/18 16:11:48;;;;;;;10.32;7.80;;;9.70;99.90;;;;;;4877146;29;20048;-83
2021/12/18 16:14:15;;;;;;;13.23;8.50;;;9.70;99.90;;;;;;4875262;29;20095;-82
2021/12/18 16:16:42;;;;;;;15.65;9.30;;;9.70;99.90;;;;;;4887708;29;20061;-83
2021/12/18 16:19:09;;;;;;;23.17;10.52;;;9.60;99.90;;;;;;4871120;29;20139;-82
2021/12/18 16:21:36;;;;;;;20.65;11.52;;;9.50;99.90;;;;;;4889753;29;20053;-82
2021/12/18 16:24:04;;;;;;;13.95;9.43;;;9.50;99.90;;;;;;4888170;29;20056;-82
2021/12/18 16:26:31;;;;;;;15.75;10.77;;;9.40;99.90;;;;;;4890850;29;20059;-82
2021/12/18 16:29:02;;;;;;;14.80;10.45;;;9.40;99.90;;;;;;4872950;29;20532;-81
2021/12/18 16:31:29;;;;;;;15.88;11.82;;;9.30;99.90;;;;;;4885344;29;20098;-82
2021/12/18 16:33:56;;;;;;;14.23;8.93;;;9.30;99.90;;;;;;4871282;29;20521;-80
2021/12/18 16:36:24;;;;;;;14.27;8.98;;;9.20;99.90;;;;;;4882664;29;20052;-85
2021/12/18 16:38:51;;;;;;;14.25;9.85;;;9.10;99.90;;;;;;4891049;29;20056;-85
2021/12/18 16:41:20;;;;;;;18.10;12.27;;;9.10;99.90;;;;;;4873374;29;20108;-82
2021/12/18 16:43:48;;;;;;;15.02;10.80;;;9.00;99.90;;;;;;4890229;29;20061;-83
2021/12/18 16:46:20;;;;;;;16.92;10.35;;;9.00;99.90;;;;;;4888180;29;20056;-84
2021/12/18 16:48:48;;;;;;;14.52;11.63;;;8.90;99.90;;;;;;4884795;29;20052;-83
2021/12/18 16:51:15;;;;;;;15.95;11.18;;;8.80;99.90;;;;;;4873050;29;20048;-83
2021/12/18 16:53:42;;;;;;;26.83;17.42;;;8.80;99.90;;;;;;4881532;29;20056;-82
2021/12/18 16:56:10;;;;;;;16.55;12.43;;;8.70;99.90;;;;;;4888517;29;20037;-81
2021/12/18 16:58:38;;;;;;;16.80;12.93;;;8.70;99.90;;;;;;4883861;29;20053;-82
2021/12/18 17:01:08;;;;;;;14.97;11.20;;;8.70;99.90;;;;;;4866137;29;20056;-81
2021/12/18 17:03:37;;;;;;;17.90;11.77;;;8.70;99.90;;;;;;4901708;29;20823;-82
2021/12/18 17:06:05;;;;;;;13.10;9.90;;;8.60;99.90;;;;;;4891740;29;20521;-81
2021/12/18 17:08:32;;;;;;;17.27;10.75;;;8.60;99.90;;;;;;4891748;29;20082;-81
2021/12/18 17:11:00;;;;;;;15.48;11.15;;;8.60;99.90;;;;;;4903291;29;20110;-81
2021/12/18 17:13:30;;;;;;;20.13;11.88;;;8.60;99.90;;;;;;4893087;29;20055;-83
2021/12/18 17:15:58;;;;;;;16.30;11.70;;;8.50;99.90;;;;;;4903919;29;20044;-83
2021/12/18 17:18:25;;;;;;;19.75;11.98;;;8.50;99.90;;;;;;4905527;29;20048;-83
2021/12/18 17:20:52;;;;;;;19.77;12.25;;;8.50;99.90;;;;;;4909693;29;20070;-79
2021/12/18 17:23:19;;;;;;;21.98;13.77;;;8.50;99.90;;;;;;4897167;29;20048;-80
2021/12/18 17:25:46;;;;;;;24.33;15.75;;;8.50;99.90;;;;;;4899983;29;20048;-80
2021/12/18 17:28:12;;;;;;;26.55;15.55;;;8.50;99.90;;;;;;4898057;29;20497;-80
2021/12/18 17:30:40;;;;;;;29.27;19.85;;;8.40;99.90;;;;;;4906158;29;20052;-80
2021/12/18 17:33:07;;;;;;;34.50;21.95;;;8.40;99.90;;;;;;4905134;29;20068;-80
2021/12/18 17:35:34;;;;;;;28.90;18.95;;;8.40;99.90;;;;;;4900291;29;20117;-80
2021/12/18 17:38:02;;;;;;;33.05;20.02;;;8.40;99.90;;;;;;4896451;29;20061;-81
2021/12/18 17:40:29;;;;;;;39.47;25.80;;;8.30;99.90;;;;;;4902143;29;20048;-80
2021/12/18 17:42:56;;;;;;;22.73;16.38;;;8.30;99.90;;;;;;4903738;29;20051;-80
2021/12/18 17:45:24;;;;;;;39.60;23.88;;;8.20;99.90;;;;;;4907531;29;20115;-81
2021/12/18 17:47:51;;;;;;;23.75;17.10;;;8.20;99.90;;;;;;4895851;29;20141;-80
2021/12/18 17:50:20;;;;;;;27.92;17.77;;;8.20;99.90;;;;;;4909820;29;20135;-82
2021/12/18 17:52:48;;;;;;;38.78;24.40;;;8.10;99.90;;;;;;4899519;29;20430;-81
2021/12/18 17:55:15;;;;;;;49.42;27.83;;;8.10;99.90;;;;;;4887869;29;20104;-81
2021/12/18 17:57:42;;;;;;;25.65;16.73;;;8.10;99.90;;;;;;4901117;29;20521;-82
2021/12/18 18:00:15;;;;;;;27.83;19.50;;;8.10;99.90;;;;;;4896853;29;20048;-81
2021/12/18 18:02:42;;;;;;;21.52;14.98;;;8.00;99.90;;;;;;4894232;29;20501;-82
2021/12/18 18:05:10;;;;;;;27.95;20.50;;;8.00;99.90;;;;;;4904823;29;20060;-81
2021/12/18 18:07:40;;;;;;;35.50;24.98;;;8.00;99.90;;;;;;4904766;29;20048;-81
2021/12/18 18:10:09;;;;;;;50.85;33.15;;;8.00;99.90;;;;;;4898610;29;20458;-82
2021/12/18 18:12:36;;;;;;;28.55;20.60;;;7.90;99.90;;;;;;4911740;29;20052;-83
2021/12/18 18:15:04;;;;;;;22.20;16.88;;;7.90;99.90;;;;;;4912723;29;20048;-82
2021/12/18 18:17:30;;;;;;;16.20;10.95;;;7.80;99.90;;;;;;4912424;29;20466;-81
2021/12/18 18:19:58;;;;;;;16.42;11.20;;;7.80;99.90;;;;;;4912214;29;20560;-82
2021/12/18 18:22:24;;;;;;;20.30;14.43;;;7.80;99.90;;;;;;4912542;29;20068;-82
2021/12/18 18:24:51;;;;;;;16.30;11.30;;;7.70;99.90;;;;;;4894006;29;20509;-82
2021/12/18 18:27:20;;;;;;;14.88;9.73;;;7.70;99.90;;;;;;4893029;29;20568;-82
2021/12/18 18:29:48;;;;;;;16.70;10.10;;;7.60;99.90;;;;;;4914353;29;20048;-82
2021/12/18 18:32:16;;;;;;;14.55;9.45;;;7.60;99.90;;;;;;4910247;29;20055;-82
2021/12/18 18:34:43;;;;;;;15.10;9.57;;;7.50;99.90;;;;;;4911966;29;20349;-82
2021/12/18 18:37:10;;;;;;;13.45;9.15;;;7.50;99.90;;;;;;4910596;29;20052;-82
2021/12/18 18:39:37;;;;;;;13.73;9.50;;;7.40;99.90;;;;;;4910863;29;20049;-82
2021/12/18 18:42:12;;;;;;;17.77;8.80;;;7.40;99.90;;;;;;4912765;29;20048;-80
2021/12/18 18:44:40;;;;;;;15.05;8.85;;;7.30;99.90;;;;;;4914163;29;20409;-82
2021/12/18 18:47:14;;;;;;;13.75;9.07;;;7.30;99.90;;;;;;4910545;29;20521;-81
2021/12/18 18:49:41;;;;;;;13.63;8.93;;;7.20;99.90;;;;;;4912140;29;20055;-82
2021/12/18 18:52:08;;;;;;;14.10;9.35;;;7.20;99.90;;;;;;4910363;29;20048;-81
2021/12/18 18:54:35;;;;;;;13.40;9.25;;;7.10;99.90;;;;;;4910825;29;20053;-82
2021/12/18 18:57:05;;;;;;;17.98;11.77;;;7.10;99.90;;;;;;4895310;29;20058;-82
2021/12/18 18:59:31;;;;;;;19.23;9.23;;;7.10;99.90;;;;;;4909895;29;20051;-82
2021/12/18 19:01:58;;;;;;;14.68;10.18;;;7.10;99.90;;;;;;4911213;29;20103;-82
2021/12/18 19:04:25;;;;;;;16.80;9.50;;;7.00;99.90;;;;;;4910028;29;20517;-82
2021/12/18 19:06:53;;;;;;;14.80;9.43;;;7.00;99.90;;;;;;4910600;29;20040;-82
2021/12/18 19:09:21;;;;;;;13.57;9.55;;;7.00;99.90;;;;;;4910168;29;20493;-82
2021/12/18 19:11:48;;;;;;;14.35;9.95;;;7.00;99.90;;;;;;4913905;29;20052;-82
2021/12/18 19:14:16;;;;;;;14.45;9.88;;;7.00;99.90;;;;;;4910556;29;20534;-82
2021/12/18 19:16:43;;;;;;;16.38;11.00;;;6.90;99.90;;;;;;4910852;29;20066;-82
2021/12/18 19:19:24;;;;;;;17.67;10.82;;;6.90;99.90;;;;;;4909808;29;20135;-82
2021/12/18 19:21:52;;;;;;;15.93;10.80;;;6.90;99.90;;;;;;4910366;29;20071;-82
2021/12/18 19:24:20;;;;;;;15.70;11.23;;;6.90;99.90;;;;;;4910329;29;20043;-82
2021/12/18 19:26:47;;;;;;;17.98;11.90;;;6.80;99.90;;;;;;4913509;29;20053;-82
2021/12/18 19:29:13;;;;;;;15.93;10.70;;;6.80;99.90;;;;;;4911357;29;20052;-82
2021/12/18 19:31:42;;;;;;;17.95;11.82;;;6.80;99.90;;;;;;4910060;29;20111;-82
2021/12/18 19:34:09;;;;;;;18.70;12.70;;;6.80;99.90;;;;;;4909776;29;20048;-82
2021/12/18 19:36:37;;;;;;;18.73;11.55;;;6.80;99.90;;;;;;4910079;29;20068;-82
2021/12/18 19:39:08;;;;;;;18.60;11.82;;;6.80;99.90;;;;;;4911822;29;20521;-81
2021/12/18 19:41:35;;;;;;;17.15;11.13;;;6.70;99.90;;;;;;4912451;29;20040;-82
2021/12/18 19:44:01;;;;;;;19.10;11.68;;;6.70;99.90;;;;;;4895658;29;20119;-82
2021/12/18 19:46:28;;;;;;;18.42;11.40;;;6.70;99.90;;;;;;4909449;29;20068;-82
2021/12/18 19:48:56;;;;;;;17.80;12.15;;;6.70;99.90;;;;;;4895838;29;20078;-82
2021/12/18 19:51:23;;;;;;;23.03;14.70;;;6.70;99.90;;;;;;4909002;29;20056;-82
2021/12/18 19:53:51;;;;;;;17.95;12.57;;;6.70;99.90;;;;;;4913010;29;20285;-82
2021/12/18 19:56:18;;;;;;;19.20;10.60;;;6.60;99.90;;;;;;4910012;29;20117;-81
2021/12/18 19:58:45;;;;;;;18.02;11.35;;;6.60;99.90;;;;;;4895604;29;20569;-82
2021/12/18 20:01:12;;;;;;;16.83;11.73;;;6.60;99.90;;;;;;4908897;29;20055;-82